Time;durP1;ratioP1;P1;durP2;ratioP2;P2;SDS_P1;SDS_P2;PMS_P1;PMS_P2;Temp;Humidity;BMP_temperature;BMP_pressure;BME280_temperature;BME280_humidity;BME280_pressure;Samples;Min_cycle;Max_cycle;Signal;HPM_P1;HPM_P2
2022/12/01 00:01:05;;;;;;;181.75;55.70;;;;;;;-1.05;71.30;102196.06;6121608;23;20021;-71
2022/12/01 00:03:32;;;;;;;165.95;56.08;;;;;;;-0.84;71.24;102183.94;6120908;23;20018;-70
2022/12/01 00:06:08;;;;;;;165.07;55.88;;;;;;;-0.83;71.01;102190.09;6122613;23;20117;-72
2022/12/01 00:08:36;;;;;;;181.30;59.28;;;;;;;-0.76;70.62;102183.69;6146691;23;20517;-71
2022/12/01 00:11:09;;;;;;;157.25;55.03;;;;;;;-0.91;71.14;102175.38;6150757;23;20474;-71
2022/12/01 00:13:36;;;;;;;172.98;57.55;;;;;;;-0.79;70.91;102178.53;6151704;23;20013;-72
2022/12/01 00:16:16;;;;;;;167.15;56.50;;;;;;;-0.67;71.12;102183.41;6149568;23;20024;-71
2022/12/01 00:18:43;;;;;;;177.18;59.90;;;;;;;-0.62;70.81;102184.09;6151108;23;20029;-71
2022/12/01 00:21:14;;;;;;;177.73;57.63;;;;;;;-0.74;71.04;102173.97;6152264;23;20027;-71
2022/12/01 00:23:49;;;;;;;166.40;55.65;;;;;;;-0.84;71.37;102183.09;6151330;23;20033;-71
2022/12/01 00:26:17;;;;;;;174.48;57.17;;;;;;;-0.85;70.93;102183.97;6151594;23;20025;-71
2022/12/01 00:28:48;;;;;;;170.68;56.85;;;;;;;-0.75;71.11;102178.34;6152385;23;20339;-71
2022/12/01 00:31:15;;;;;;;;;;;;;;;-0.66;70.71;102182.47;6152598;23;20021;-71
2022/12/01 00:33:41;;;;;;;167.30;55.45;;;;;;;-0.78;71.40;102180.22;6150422;23;19948;-72
2022/12/01 00:36:08;;;;;;;174.23;55.05;;;;;;;-0.71;71.33;102180.00;6151840;23;20022;-72
2022/12/01 00:38:36;;;;;;;175.05;58.13;;;;;;;-0.76;71.19;102183.69;6151592;23;20096;-72
2022/12/01 00:41:03;;;;;;;175.15;58.33;;;;;;;-0.67;71.36;102183.41;6152462;23;20021;-72
2022/12/01 00:43:29;;;;;;;180.00;59.30;;;;;;;-0.59;71.34;102178.72;6152941;23;20028;-72
2022/12/01 00:45:56;;;;;;;173.27;57.88;;;;;;;-0.73;71.13;102179.19;6151829;23;20362;-72
2022/12/01 00:48:23;;;;;;;168.23;58.17;;;;;;;-0.65;71.01;102178.91;6151527;23;20021;-73
2022/12/01 00:50:53;;;;;;;168.02;57.42;;;;;;;-0.55;70.44;102188.22;6152094;23;20021;-73
2022/12/01 00:53:20;;;;;;;174.10;56.65;;;;;;;-0.59;70.56;102178.72;6151119;23;20092;-73
2022/12/01 00:55:46;;;;;;;162.27;54.95;;;;;;;-0.67;70.86;102176.34;6151473;23;20021;-72
2022/12/01 00:58:13;;;;;;;159.15;54.72;;;;;;;-0.66;70.66;102178.06;6152299;23;20025;-73
2022/12/01 01:00:41;;;;;;;171.20;57.25;;;;;;;-0.74;71.12;102181.88;6151017;23;20022;-72
2022/12/01 01:03:09;;;;;;;160.07;54.33;;;;;;;-0.62;70.31;102186.72;6151238;23;20048;-72
2022/12/01 01:05:38;;;;;;;169.30;54.67;;;;;;;-0.76;70.69;102195.09;6151358;23;20018;-72
2022/12/01 01:08:09;;;;;;;161.30;52.88;;;;;;;-0.96;71.12;102190.47;6151830;23;20026;-72
2022/12/01 01:10:39;;;;;;;;;;;;;;;-0.88;71.39;102192.00;6150455;23;20022;-72
2022/12/01 01:13:05;;;;;;;154.07;50.65;;;;;;;-1.05;71.05;102196.06;6150606;23;19920;-70
2022/12/01 01:15:32;;;;;;;138.57;48.13;;;;;;;-1.14;71.39;102198.97;6151828;23;20021;-70
2022/12/01 01:17:59;;;;;;;131.95;47.90;;;;;;;-0.94;70.53;102201.81;6152547;23;20021;-73
2022/12/01 01:20:26;;;;;;;135.00;49.90;;;;;;;-0.98;70.84;102196.72;6151757;23;20028;-73
2022/12/01 01:22:52;;;;;;;134.80;47.00;;;;;;;-0.74;70.39;102202.97;6151138;23;20029;-73
2022/12/01 01:25:19;;;;;;;128.77;47.28;;;;;;;-0.73;70.13;102199.41;6151497;23;20032;-72
2022/12/01 01:27:45;;;;;;;129.88;46.42;;;;;;;-0.77;69.92;102196.00;6151867;23;20033;-73
2022/12/01 01:30:12;;;;;;;144.98;50.67;;;;;;;-0.63;69.96;102192.91;6151652;23;20019;-73
2022/12/01 01:32:39;;;;;;;143.40;49.30;;;;;;;-0.72;69.86;102194.06;6151681;23;20028;-72
2022/12/01 01:35:06;;;;;;;135.95;47.10;;;;;;;-0.80;69.78;102195.25;6153151;23;20021;-72
2022/12/01 01:37:32;;;;;;;135.60;47.22;;;;;;;-0.93;70.24;102205.31;6153843;23;20021;-72
2022/12/01 01:39:59;;;;;;;145.88;47.22;;;;;;;-1.18;71.08;102199.97;6154378;23;20116;-73
2022/12/01 01:42:25;;;;;;;128.65;45.25;;;;;;;-1.19;71.03;102195.63;6152724;23;20346;-72
2022/12/01 01:44:55;;;;;;;134.73;47.03;;;;;;;-1.35;71.90;102194.38;6152594;23;20018;-72
2022/12/01 01:47:27;;;;;;;133.82;48.13;;;;;;;-1.26;71.73;102197.59;6152153;23;20021;-72
2022/12/01 01:49:56;;;;;;;142.85;47.55;;;;;;;-1.27;71.53;102198.47;6152789;23;20485;-73
2022/12/01 01:52:23;;;;;;;147.98;47.83;;;;;;;-1.40;72.14;102190.13;6152297;23;20027;-72
2022/12/01 01:54:54;;;;;;;144.50;49.10;;;;;;;-1.50;72.71;102199.19;6151934;23;20025;-72
2022/12/01 01:57:27;;;;;;;148.63;49.43;;;;;;;-1.34;71.85;102199.56;6153237;23;20040;-72
2022/12/01 02:00:00;;;;;;;143.75;48.13;;;;;;;-1.18;72.05;102192.09;6153305;23;20706;-72
2022/12/01 02:02:26;;;;;;;146.98;48.45;;;;;;;-1.24;71.68;102189.63;6152663;23;20025;-72
2022/12/01 02:08:27;;;;;;;157.10;50.20;;;;;;;-1.32;71.73;102189.88;6074938;23;20491;-72
2022/12/01 02:10:59;;;;;;;139.02;49.10;;;;;;;-1.16;71.66;102179.69;6063206;23;20026;-73
2022/12/01 02:13:43;;;;;;;138.15;48.05;;;;;;;-1.13;71.21;102179.63;6063692;23;20034;-73
2022/12/01 02:16:51;;;;;;;138.27;48.13;;;;;;;-1.25;71.30;102183.50;6062423;23;20027;-72
2022/12/01 02:19:51;;;;;;;140.75;48.20;;;;;;;-1.40;72.23;102179.59;6062480;23;20101;-72
2022/12/01 02:22:29;;;;;;;147.57;47.33;;;;;;;-1.56;72.69;102170.44;6039574;23;20490;-71
2022/12/01 02:25:18;;;;;;;153.52;49.25;;;;;;;-1.35;72.11;102175.94;6062958;23;20444;-72
2022/12/01 02:28:01;;;;;;;148.50;48.30;;;;;;;-1.30;72.11;102177.53;6061369;23;20365;-73
2022/12/01 02:30:34;;;;;;;135.75;48.22;;;;;;;-1.58;73.16;102174.00;6063125;23;20344;-72
2022/12/01 02:33:10;;;;;;;157.27;49.20;;;;;;;-1.69;73.39;102174.34;6061660;23;20081;-71
2022/12/01 02:35:49;;;;;;;147.98;48.75;;;;;;;-1.75;74.16;102178.03;6060969;23;20031;-70
2022/12/01 02:38:28;;;;;;;160.70;49.53;;;;;;;-1.64;73.25;102182.97;6061734;23;20436;-71
2022/12/01 02:41:15;;;;;;;151.43;49.03;;;;;;;-1.65;73.52;102179.44;6062676;23;20026;-72
2022/12/01 02:44:19;;;;;;;162.80;48.67;;;;;;;-1.55;73.22;102182.66;6062069;23;20031;-72
2022/12/01 02:47:10;;;;;;;151.02;49.63;;;;;;;-1.61;73.50;102180.25;6146841;23;20100;-71
2022/12/01 02:49:49;;;;;;;157.00;50.90;;;;;;;-1.54;73.31;102180.91;6143084;23;20424;-71
2022/12/01 02:52:17;;;;;;;162.80;51.03;;;;;;;-1.60;73.77;102171.44;6151658;23;20076;-72
2022/12/01 02:54:45;;;;;;;164.75;49.83;;;;;;;-1.60;73.47;102175.84;6152782;23;20502;-72
2022/12/01 02:57:14;;;;;;;175.23;53.55;;;;;;;-1.51;73.09;102168.50;6151776;23;20021;-72
2022/12/01 02:59:43;;;;;;;165.60;50.83;;;;;;;-1.81;74.06;102164.19;6152189;23;20028;-72
2022/12/01 03:02:18;;;;;;;170.82;51.90;;;;;;;-1.62;73.80;102168.84;6152679;23;20018;-71
2022/12/01 03:05:25;;;;;;;147.15;48.05;;;;;;;-1.68;74.03;102179.56;6150582;23;20025;-72
2022/12/01 03:08:28;;;;;;;169.68;50.10;;;;;;;-1.60;73.34;102178.47;6103355;23;20026;-72
2022/12/01 03:10:57;;;;;;;157.35;51.88;;;;;;;-1.45;73.06;102170.97;6134937;23;20036;-72
2022/12/01 03:13:50;;;;;;;162.35;49.97;;;;;;;-1.72;73.56;102174.41;6152600;23;20110;-72
2022/12/01 03:16:25;;;;;;;155.80;50.33;;;;;;;-1.84;73.78;102178.28;6151353;23;20024;-72
2022/12/01 03:18:59;;;;;;;148.32;48.00;;;;;;;-1.95;73.72;102177.75;6151380;23;20045;-72
2022/12/01 03:21:32;;;;;;;158.10;46.22;;;;;;;-1.87;73.41;102184.47;6151408;23;20021;-71
2022/12/01 03:24:06;;;;;;;154.55;47.78;;;;;;;-1.84;73.51;102182.69;6153150;23;20585;-71
2022/12/01 03:26:36;;;;;;;159.27;48.17;;;;;;;-1.86;73.87;102178.31;6123216;23;20021;-71
2022/12/01 03:29:08;;;;;;;164.70;49.53;;;;;;;-1.83;73.36;102173.88;6122896;23;20447;-71
2022/12/01 03:31:42;;;;;;;146.50;48.17;;;;;;;-1.70;72.85;102177.88;6122808;23;20022;-72
2022/12/01 03:34:16;;;;;;;167.07;49.78;;;;;;;-1.65;72.43;102170.69;6122466;23;20025;-71
2022/12/01 03:36:49;;;;;;;155.95;49.70;;;;;;;-1.57;72.74;102179.25;6122414;23;20022;-71
2022/12/01 03:39:24;;;;;;;149.80;48.83;;;;;;;-1.52;71.89;102168.56;6122006;23;20455;-72
2022/12/01 03:42:00;;;;;;;160.73;51.08;;;;;;;-1.81;72.73;102174.72;6122639;23;20022;-71
2022/12/01 03:44:42;;;;;;;155.50;49.30;;;;;;;-1.79;72.69;102173.72;6123304;23;20025;-71
2022/12/01 03:47:13;;;;;;;152.32;48.72;;;;;;;-1.84;72.53;102182.69;6122459;23;20018;-71
2022/12/01 03:49:40;;;;;;;165.02;51.20;;;;;;;-1.77;72.85;102185.09;6121071;23;20477;-71
2022/12/01 03:52:21;;;;;;;149.55;48.00;;;;;;;-1.92;72.63;102178.50;6123171;23;20029;-73
2022/12/01 03:55:03;;;;;;;114.43;35.70;;;;;;;-1.89;73.04;102183.69;6149110;23;20022;-72
2022/12/01 03:58:08;;;;;;;152.02;46.33;;;;;;;-1.98;73.12;102183.09;6152433;23;20575;-71
2022/12/01 04:00:35;;;;;;;140.55;46.13;;;;;;;-1.91;73.08;102193.38;6121952;23;20025;-71
2022/12/01 04:03:03;;;;;;;150.25;48.42;;;;;;;-1.98;73.30;102190.97;6122818;23;20021;-72
2022/12/01 04:05:32;;;;;;;158.80;52.00;;;;;;;-2.11;73.53;102195.69;6122204;23;20359;-72
2022/12/01 04:07:58;;;;;;;161.43;50.22;;;;;;;-1.95;73.57;102185.63;6123181;23;20049;-72
2022/12/01 04:10:25;;;;;;;164.27;53.25;;;;;;;-1.90;73.31;102186.34;6122083;23;20072;-72
2022/12/01 04:12:57;;;;;;;178.55;54.35;;;;;;;-2.16;74.09;102189.72;6121865;23;20026;-72
2022/12/01 04:15:26;;;;;;;181.10;51.17;;;;;;;-2.22;74.38;102193.38;6121561;23;20022;-72
2022/12/01 04:17:52;;;;;;;179.85;55.67;;;;;;;-2.04;73.68;102197.25;6121185;23;20040;-72
2022/12/01 04:20:19;;;;;;;164.32;53.50;;;;;;;-1.89;73.23;102201.22;6121636;23;20018;-72
2022/12/01 04:22:47;;;;;;;167.27;54.10;;;;;;;-1.91;73.22;102193.38;6122305;23;20026;-72
2022/12/01 04:25:14;;;;;;;151.18;52.45;;;;;;;-1.78;73.28;102193.00;6120199;23;20029;-72
2022/12/01 04:27:40;;;;;;;156.57;53.47;;;;;;;-1.97;73.21;102192.69;6121795;23;20017;-71
2022/12/01 04:30:08;;;;;;;164.27;55.08;;;;;;;-1.72;72.78;102187.56;6123524;23;20025;-70
2022/12/01 04:32:43;;;;;;;160.68;53.50;;;;;;;-1.93;73.12;102197.81;6123107;23;20021;-71
2022/12/01 04:35:11;;;;;;;149.85;50.25;;;;;;;-2.10;73.73;102186.91;6121430;23;20089;-71
2022/12/01 04:37:38;;;;;;;164.07;52.97;;;;;;;-1.98;73.21;102197.09;6144608;23;20017;-71
2022/12/01 04:40:05;;;;;;;167.43;54.72;;;;;;;-2.01;73.61;102191.06;6151177;23;20018;-71
2022/12/01 04:42:32;;;;;;;158.90;54.53;;;;;;;-1.89;72.90;102191.56;6119215;23;20021;-72
2022/12/01 04:44:58;;;;;;;162.88;55.72;;;;;;;-1.68;72.61;102200.63;6150625;23;20024;-71
2022/12/01 04:47:25;;;;;;;174.57;57.55;;;;;;;-1.68;72.39;102197.09;6151655;23;20028;-71
2022/12/01 04:49:52;;;;;;;160.55;53.63;;;;;;;-1.83;72.33;102200.19;6152443;23;20353;-71
2022/12/01 04:52:18;;;;;;;160.88;55.08;;;;;;;-2.03;73.31;102204.22;6151569;23;20112;-70
2022/12/01 04:54:44;;;;;;;178.55;57.72;;;;;;;-2.11;73.60;102209.72;6151786;23;20025;-72
2022/12/01 04:57:11;;;;;;;162.75;55.25;;;;;;;-2.05;74.20;102219.19;6151347;23;20017;-72
2022/12/01 04:59:37;;;;;;;183.05;59.83;;;;;;;-2.17;74.15;102209.88;6151243;23;20097;-73
2022/12/01 05:02:04;;;;;;;173.98;58.50;;;;;;;-2.27;74.10;102210.16;6151836;23;20017;-73
2022/12/01 05:04:32;;;;;;;179.48;59.65;;;;;;;-2.01;74.37;102218.22;6151325;23;20036;-71
2022/12/01 05:06:59;;;;;;;194.27;61.47;;;;;;;-2.20;74.97;102212.59;6152207;23;20442;-71
2022/12/01 05:09:25;;;;;;;180.90;57.15;;;;;;;-2.18;74.75;102209.91;6153986;23;20033;-72
2022/12/01 05:11:52;;;;;;;187.27;57.53;;;;;;;-1.94;73.37;102219.75;6153061;23;20030;-71
2022/12/01 05:14:18;;;;;;;187.65;60.95;;;;;;;-1.87;73.98;102207.31;6153160;23;20332;-71
2022/12/01 05:16:45;;;;;;;184.23;58.83;;;;;;;-1.81;73.44;102208.91;6152681;23;20386;-72
2022/12/01 05:21:57;;;;;;;189.90;60.75;;;;;;;-1.88;73.40;102209.06;6152693;23;20029;-72
2022/12/01 05:24:23;;;;;;;180.55;58.22;;;;;;;-1.81;73.00;102214.16;6153758;23;20041;-72
2022/12/01 05:26:50;;;;;;;189.85;61.45;;;;;;;-1.92;73.07;102214.47;6154062;23;20032;-72
2022/12/01 05:29:16;;;;;;;191.25;60.10;;;;;;;-1.91;73.21;102217.06;6152243;23;20034;-72
2022/12/01 05:31:44;;;;;;;179.93;59.50;;;;;;;-2.00;73.80;102217.28;6152954;23;20025;-72
2022/12/01 05:34:11;;;;;;;174.57;56.72;;;;;;;-1.97;73.71;102222.47;6151380;23;20077;-72
2022/12/01 05:36:38;;;;;;;177.23;60.05;;;;;;;-2.05;74.00;102219.19;6153153;23;20018;-72
2022/12/01 05:39:04;;;;;;;173.35;58.85;;;;;;;-2.18;74.35;102228.31;6127675;23;20028;-72
2022/12/01 05:41:31;;;;;;;170.48;57.88;;;;;;;-2.23;74.53;102228.47;6152673;23;20688;-73
2022/12/01 05:43:57;;;;;;;177.57;57.25;;;;;;;-2.25;74.75;102226.75;6153654;23;20025;-73
2022/12/01 05:46:24;;;;;;;194.07;59.67;;;;;;;-1.96;73.74;102226.81;6153623;23;20390;-72
2022/12/01 05:48:50;;;;;;;186.70;61.33;;;;;;;-1.89;73.62;102232.78;6152480;23;20459;-73
2022/12/01 05:51:17;;;;;;;186.32;62.50;;;;;;;-2.01;73.83;102226.09;6152992;23;20006;-72
2022/12/01 05:53:43;;;;;;;179.73;62.08;;;;;;;-2.01;73.49;102225.25;6152110;23;20518;-71
2022/12/01 05:56:10;;;;;;;184.07;59.30;;;;;;;-2.08;73.51;102227.19;6152778;23;20026;-72
2022/12/01 05:58:36;;;;;;;167.60;59.65;;;;;;;-1.90;73.52;102231.91;6152718;23;20021;-75
2022/12/01 06:01:09;;;;;;;183.82;59.38;;;;;;;-2.07;73.45;102234.16;6149499;23;20028;-74
2022/12/01 06:03:36;;;;;;;183.50;61.17;;;;;;;-2.15;74.12;102226.47;6151176;23;20018;-75
2022/12/01 06:06:06;;;;;;;185.02;57.90;;;;;;;-2.30;74.44;102223.38;6150887;23;20037;-75
2022/12/01 06:08:32;;;;;;;178.98;57.58;;;;;;;-2.23;74.39;102231.09;6150904;23;20064;-75
2022/12/01 06:11:02;;;;;;;173.52;56.25;;;;;;;-2.28;74.50;102235.59;6147737;23;20036;-75
2022/12/01 06:13:28;;;;;;;160.95;56.13;;;;;;;-2.40;74.24;102231.53;6151647;23;20022;-76
2022/12/01 06:16:01;;;;;;;157.73;54.33;;;;;;;-2.23;73.71;102231.09;6149871;23;20336;-76
2022/12/01 06:18:36;;;;;;;154.40;54.45;;;;;;;-2.06;73.39;102240.25;6149089;23;20018;-76
2022/12/01 06:21:04;;;;;;;165.95;57.17;;;;;;;-2.07;73.23;102239.41;6150781;23;20029;-76
2022/12/01 06:23:31;;;;;;;160.75;55.72;;;;;;;-2.00;73.02;102248.84;6136325;23;20018;-75
2022/12/01 06:25:58;;;;;;;165.55;55.67;;;;;;;-2.13;73.72;102236.94;6151236;23;20380;-76
2022/12/01 06:28:26;;;;;;;164.35;55.97;;;;;;;-2.11;73.39;102246.53;6114583;23;20183;-76
2022/12/01 06:30:55;;;;;;;170.93;59.53;;;;;;;-2.11;73.32;102253.56;6149667;23;20022;-76
2022/12/01 06:33:28;;;;;;;167.30;58.55;;;;;;;-2.25;73.99;102248.66;6151880;23;20013;-76
2022/12/01 06:35:59;;;;;;;161.90;57.78;;;;;;;-2.24;73.58;102244.25;6149442;23;20022;-76
2022/12/01 06:38:31;;;;;;;161.70;60.38;;;;;;;-2.38;74.27;102244.59;6149952;23;20023;-75
2022/12/01 06:40:59;;;;;;;166.63;57.35;;;;;;;-2.25;73.88;102247.78;6151917;23;20405;-75
2022/12/01 06:43:26;;;;;;;165.82;58.88;;;;;;;-2.27;74.11;102250.44;6148373;23;20096;-75
2022/12/01 06:45:52;;;;;;;166.40;58.53;;;;;;;-2.31;74.81;102258.47;6151285;23;20026;-75
2022/12/01 06:48:26;;;;;;;168.65;60.67;;;;;;;-2.08;74.06;102253.47;6150697;23;20462;-75
2022/12/01 06:50:59;;;;;;;176.85;62.58;;;;;;;-2.09;73.36;102251.75;6148953;23;20017;-75
2022/12/01 06:53:27;;;;;;;166.75;60.60;;;;;;;-2.15;73.70;102257.16;6150812;23;20354;-75
2022/12/01 06:56:02;;;;;;;176.25;63.22;;;;;;;-2.11;73.31;102250.91;6149159;23;20109;-75
2022/12/01 06:58:31;;;;;;;170.65;63.15;;;;;;;-2.00;73.27;102254.13;6150926;23;20126;-75
2022/12/01 07:01:01;;;;;;;174.77;61.08;;;;;;;-1.97;72.85;102256.66;6149852;23;20025;-75
2022/12/01 07:03:31;;;;;;;174.98;62.72;;;;;;;-1.97;72.83;102251.41;6150265;23;20022;-75
2022/12/01 07:05:59;;;;;;;158.02;59.17;;;;;;;-1.86;72.56;102262.50;6149854;23;20031;-75
2022/12/01 07:08:31;;;;;;;172.93;59.72;;;;;;;-2.06;72.84;102256.03;6150161;23;20021;-75
2022/12/01 07:10:59;;;;;;;166.73;61.25;;;;;;;-2.05;73.06;102258.66;6150049;23;20022;-75
2022/12/01 07:13:30;;;;;;;154.35;57.83;;;;;;;-1.99;72.67;102263.75;6150502;23;20021;-75
2022/12/01 07:16:05;;;;;;;174.30;62.50;;;;;;;-1.74;72.49;102257.81;6149068;23;20354;-75
2022/12/01 07:18:36;;;;;;;158.20;61.25;;;;;;;-1.74;72.00;102263.94;6114276;23;20031;-75
2022/12/01 07:21:10;;;;;;;161.45;60.35;;;;;;;-1.97;72.07;102256.66;6148303;23;20029;-75
2022/12/01 07:23:37;;;;;;;160.60;60.80;;;;;;;-1.70;72.09;102272.59;6149306;23;20029;-75
2022/12/01 07:26:08;;;;;;;186.60;63.60;;;;;;;-2.01;72.72;102265.53;6138354;23;20021;-75
2022/12/01 07:28:35;;;;;;;;;;;;;;;-2.14;72.51;102267.63;6150640;23;21034;-74
2022/12/01 07:31:07;;;;;;;184.77;64.43;;;;;;;-2.11;72.99;102264.94;6149766;23;19916;-75
2022/12/01 07:33:37;;;;;;;185.38;64.18;;;;;;;-2.20;72.48;102273.06;6105896;23;20076;-75
2022/12/01 07:36:10;;;;;;;186.20;64.72;;;;;;;-2.05;72.21;102263.06;6151342;23;20085;-75
2022/12/01 07:38:38;;;;;;;184.23;67.68;;;;;;;-1.95;71.71;102275.91;6149105;23;20048;-75
2022/12/01 07:41:05;;;;;;;190.35;66.28;;;;;;;-1.73;71.52;102270.06;6150166;23;20025;-75
2022/12/01 07:43:34;;;;;;;193.68;68.70;;;;;;;-1.72;71.39;102267.38;6149229;23;20021;-75
2022/12/01 07:46:05;;;;;;;191.07;66.97;;;;;;;-1.67;71.18;102275.16;6150086;23;20032;-75
2022/12/01 07:48:32;;;;;;;142.43;51.78;;;;;;;-1.86;71.18;102275.63;6123567;23;20029;-75
2022/12/01 07:50:58;;;;;;;204.88;68.60;;;;;;;-1.78;71.33;102275.44;6148675;23;20350;-75
2022/12/01 07:53:28;;;;;;;198.20;69.63;;;;;;;-1.86;71.60;102280.91;6148072;23;20100;-75
2022/12/01 07:55:55;;;;;;;196.80;68.15;;;;;;;-1.70;71.12;102284.00;6147076;23;20462;-75
2022/12/01 07:58:25;;;;;;;202.02;70.28;;;;;;;-1.78;71.49;102283.34;6133725;23;20018;-75
2022/12/01 08:01:17;;;;;;;213.73;76.55;;;;;;;-1.58;70.80;102277.50;6127260;23;20032;-75
2022/12/01 08:03:53;;;;;;;222.75;78.70;;;;;;;-1.56;69.98;102280.97;6115645;23;20112;-75
2022/12/01 08:06:21;;;;;;;214.82;75.15;;;;;;;-1.57;69.78;102284.50;6148780;23;20386;-75
2022/12/01 08:09:12;;;;;;;226.95;79.93;;;;;;;-1.47;70.17;102285.09;6149003;23;20069;-76
2022/12/01 08:11:45;;;;;;;215.10;74.28;;;;;;;-1.22;69.73;102280.00;6140969;23;20462;-75
2022/12/01 08:14:36;;;;;;;163.45;55.25;;;;;;;-1.40;69.60;102282.25;6115175;23;20018;-75
2022/12/01 08:17:13;;;;;;;218.40;75.15;;;;;;;-1.52;69.91;102285.22;6125315;23;20056;-75
2022/12/01 08:19:50;;;;;;;217.45;74.30;;;;;;;-1.43;69.55;102284.97;6149926;23;20029;-75
2022/12/01 08:22:23;;;;;;;219.82;75.50;;;;;;;-1.40;69.98;102286.66;6093541;23;20485;-74
2022/12/01 08:24:52;;;;;;;218.48;73.85;;;;;;;-1.45;69.76;102283.28;6127792;23;20451;-75
2022/12/01 08:27:19;;;;;;;237.90;77.05;;;;;;;-1.70;70.31;102288.38;6133528;23;20022;-75
2022/12/01 08:29:46;;;;;;;232.45;77.82;;;;;;;-1.80;70.25;102285.16;6145303;23;20027;-75
2022/12/01 08:32:14;;;;;;;230.82;76.45;;;;;;;-1.88;70.84;102298.50;6121925;23;20049;-75
2022/12/01 08:34:42;;;;;;;234.15;76.55;;;;;;;-1.99;71.01;102292.69;6118621;23;20390;-75
2022/12/01 08:37:14;;;;;;;229.95;74.90;;;;;;;-1.89;70.99;102288.91;6119685;23;20506;-75
2022/12/01 08:39:41;;;;;;;222.70;73.97;;;;;;;-1.84;71.10;102288.78;6121142;23;20034;-75
2022/12/01 08:42:09;;;;;;;228.05;76.78;;;;;;;-1.98;70.90;102286.50;6121443;23;20028;-75
2022/12/01 08:44:35;;;;;;;242.20;75.47;;;;;;;-1.71;70.63;102291.94;6086109;23;20025;-75
2022/12/01 08:47:02;;;;;;;243.80;77.60;;;;;;;-1.75;70.54;102288.53;6121203;23;20097;-75
2022/12/01 08:49:29;;;;;;;241.93;77.75;;;;;;;-1.93;71.26;102287.22;6122782;23;20057;-75
2022/12/01 08:51:55;;;;;;;242.60;79.40;;;;;;;-1.84;71.08;102293.16;6120119;23;20056;-75
2022/12/01 08:54:22;;;;;;;252.27;81.43;;;;;;;-1.64;70.75;102291.72;6123051;23;20050;-75
2022/12/01 08:56:49;;;;;;;243.02;79.18;;;;;;;-1.50;70.24;102288.69;6096782;23;20026;-75
2022/12/01 08:59:15;;;;;;;253.93;82.25;;;;;;;-1.47;70.09;102293.88;6123568;23;20478;-75
2022/12/01 09:01:52;;;;;;;258.85;82.68;;;;;;;-1.44;69.67;102293.78;6151997;23;20516;-75
2022/12/01 09:04:25;;;;;;;252.40;82.20;;;;;;;-1.63;70.16;102296.06;6145304;23;20447;-75
2022/12/01 09:06:55;;;;;;;261.13;85.30;;;;;;;-1.34;69.89;102293.50;6151968;23;20354;-75
2022/12/01 09:09:43;;;;;;;;;;;;;;;;;;;;;
2022/12/01 09:12:33;;;;;;;256.25;82.57;;;;;;;-1.33;69.14;102297.84;6112346;23;20029;-75
2022/12/01 09:15:19;;;;;;;255.65;84.28;;;;;;;-1.28;69.28;102298.59;6136632;23;20025;-75
2022/12/01 09:18:07;;;;;;;240.88;80.22;;;;;;;-1.48;69.18;102297.38;6146275;23;20042;-75
2022/12/01 09:20:33;;;;;;;246.18;79.07;;;;;;;-1.58;69.94;102293.28;6134647;23;20021;-75
2022/12/01 09:23:03;;;;;;;237.85;76.60;;;;;;;-2.01;70.68;102297.09;6135322;23;20029;-75
2022/12/01 09:25:29;;;;;;;235.82;79.28;;;;;;;-1.88;70.91;102301.16;6120536;23;20101;-75
2022/12/01 09:28:09;;;;;;;223.13;75.75;;;;;;;-1.83;70.78;102294.88;6120181;23;20022;-75
2022/12/01 09:30:38;;;;;;;235.18;76.05;;;;;;;-1.77;70.67;102290.31;6117711;23;20030;-76
2022/12/01 09:33:07;;;;;;;227.82;79.05;;;;;;;-1.65;70.04;102299.63;6121165;23;20022;-76
2022/12/01 09:35:35;;;;;;;220.23;74.65;;;;;;;-1.55;69.78;102292.34;6121974;23;20054;-75
2022/12/01 09:38:05;;;;;;;218.73;73.80;;;;;;;-1.72;69.62;102292.81;6122146;23;20022;-75
2022/12/01 09:40:50;;;;;;;221.85;76.18;;;;;;;-1.60;69.71;102292.50;6123209;23;20025;-75
2022/12/01 09:43:39;;;;;;;217.93;73.93;;;;;;;-1.71;69.57;102294.56;6130262;23;20025;-75
2022/12/01 09:46:16;;;;;;;237.63;78.38;;;;;;;-1.48;69.39;102293.91;6131861;23;20036;-75
2022/12/01 09:48:48;;;;;;;219.90;76.53;;;;;;;-1.62;69.43;102295.16;6153274;23;20431;-75
2022/12/01 09:51:27;;;;;;;217.57;75.68;;;;;;;-1.61;69.12;102296.03;6151531;23;20027;-74
2022/12/01 09:53:59;;;;;;;237.23;80.43;;;;;;;-1.52;69.57;102300.16;6150038;23;20031;-75
2022/12/01 09:56:37;;;;;;;214.68;77.07;;;;;;;-1.40;68.33;102298.06;6152945;23;20018;-74
2022/12/01 09:59:06;;;;;;;232.63;78.85;;;;;;;-1.56;68.81;102288.00;6123030;23;20153;-75
2022/12/01 10:02:01;;;;;;;224.55;75.32;;;;;;;-1.54;69.72;102287.06;6113305;23;20029;-75
2022/12/01 10:04:50;;;;;;;222.68;78.45;;;;;;;-1.55;69.31;102290.56;6111638;23;20022;-75
2022/12/01 10:07:46;;;;;;;227.10;79.65;;;;;;;-1.63;69.26;102289.94;6078987;23;20085;-75
2022/12/01 10:10:19;;;;;;;244.38;79.13;;;;;;;-1.63;69.38;102288.16;6120001;23;20075;-75
2022/12/01 10:12:46;;;;;;;228.93;76.68;;;;;;;-1.80;69.97;102282.50;6122716;23;20407;-75
2022/12/01 10:15:31;;;;;;;219.55;74.55;;;;;;;-1.74;70.02;102274.47;6113809;23;20443;-75
2022/12/01 10:18:09;;;;;;;222.98;75.47;;;;;;;-1.58;69.20;102279.28;6114963;23;20061;-75
2022/12/01 10:20:46;;;;;;;212.23;74.47;;;;;;;-1.82;69.80;102283.44;6123351;23;20014;-75
2022/12/01 10:23:13;;;;;;;222.90;75.13;;;;;;;-1.93;70.00;102278.47;6120951;23;20053;-75
2022/12/01 10:26:08;;;;;;;201.57;70.60;;;;;;;-1.67;69.23;102273.38;6122793;23;20704;-75
2022/12/01 10:29:09;;;;;;;219.32;75.88;;;;;;;-1.66;69.04;102271.59;6123360;23;20018;-75
2022/12/01 10:31:57;;;;;;;221.48;75.47;;;;;;;-1.88;70.10;102266.94;6089046;23;20033;-75
2022/12/01 10:34:31;;;;;;;223.65;75.47;;;;;;;-1.79;69.93;102264.94;6101824;23;20444;-74
2022/12/01 10:36:58;;;;;;;235.95;79.30;;;;;;;-1.57;69.45;102263.47;6091031;23;20018;-75
2022/12/01 10:39:28;;;;;;;229.82;80.25;;;;;;;-1.51;69.19;102262.41;6092015;23;20105;-74
2022/12/01 10:42:28;;;;;;;213.20;75.20;;;;;;;-1.51;68.80;102258.00;6092743;23;20097;-75
2022/12/01 10:44:56;;;;;;;224.50;77.88;;;;;;;-1.60;69.14;102252.16;6090755;23;20419;-74
2022/12/01 10:47:25;;;;;;;227.45;75.32;;;;;;;-1.68;69.69;102262.88;6093966;23;20380;-74
2022/12/01 10:49:51;;;;;;;230.10;78.35;;;;;;;-1.67;69.75;102259.38;6093024;23;20025;-75
2022/12/01 10:52:36;;;;;;;226.93;77.45;;;;;;;-1.50;69.08;102254.47;6092437;23;20025;-75
2022/12/01 10:55:22;;;;;;;223.98;75.05;;;;;;;-1.45;69.03;102260.44;6091444;23;20029;-75
2022/12/01 10:57:49;;;;;;;215.88;74.90;;;;;;;-1.50;69.23;102254.47;6090368;23;20352;-75
2022/12/01 11:00:22;;;;;;;221.25;79.28;;;;;;;-1.53;69.44;102251.94;6091665;23;20027;-75
2022/12/01 11:03:19;;;;;;;210.95;74.70;;;;;;;-1.60;69.51;102246.91;6093330;23;20022;-74
2022/12/01 11:05:56;;;;;;;216.55;77.68;;;;;;;-1.37;69.41;102247.06;6120530;23;20026;-75
2022/12/01 11:08:45;;;;;;;211.75;76.28;;;;;;;-1.32;69.03;102245.16;6119469;23;20085;-75
2022/12/01 11:11:44;;;;;;;202.88;75.63;;;;;;;-1.31;68.65;102248.66;6120327;23;20017;-75
2022/12/01 11:14:20;;;;;;;212.50;75.75;;;;;;;-1.43;68.90;102245.50;6086658;23;20381;-75
2022/12/01 11:16:50;;;;;;;196.43;73.05;;;;;;;-1.46;68.57;102248.22;6120780;23;20026;-75
2022/12/01 11:19:20;;;;;;;206.02;71.63;;;;;;;-1.16;67.88;102261.34;6071728;23;20019;-75
2022/12/01 11:21:56;;;;;;;197.82;74.57;;;;;;;-1.24;67.93;102252.81;6122627;23;20030;-75
2022/12/01 11:24:40;;;;;;;188.02;69.72;;;;;;;-1.24;68.30;102250.19;6122372;23;20093;-75
2022/12/01 11:27:17;;;;;;;176.13;68.03;;;;;;;-1.30;67.74;102242.47;6119990;23;20017;-74
2022/12/01 11:29:48;;;;;;;184.32;69.55;;;;;;;-1.47;68.54;102233.34;6122283;23;20420;-74
2022/12/01 11:32:17;;;;;;;180.68;66.97;;;;;;;-1.34;68.07;102240.84;6121418;23;20104;-75
2022/12/01 11:34:50;;;;;;;177.00;67.97;;;;;;;-1.32;67.91;102242.53;6119794;23;20029;-75